Time;durP1;ratioP1;P1;durP2;ratioP2;P2;SDS_P1;SDS_P2;PMS_P1;PMS_P2;Temp;Humidity;BMP_temperature;BMP_pressure;BME280_temperature;BME280_humidity;BME280_pressure;Samples;Min_cycle;Max_cycle;Signal;HPM_P1;HPM_P2
2022/12/20 00:01:52;;;;;;;9.05;4.70;;;;;;;;;;5070117;28;20041;-67
2022/12/20 00:04:18;;;;;;;11.45;5.47;;;;;;;;;;5068804;28;20422;-67
2022/12/20 00:06:44;;;;;;;11.57;5.30;;;;;;;;;;5069011;28;20124;-67
2022/12/20 00:09:11;;;;;;;10.43;4.93;;;;;;;;;;5065780;28;20528;-67
2022/12/20 00:11:41;;;;;;;8.18;5.22;;;;;;;;;;5068549;28;20413;-67
2022/12/20 00:14:08;;;;;;;6.80;4.78;;;;;;;;;;5068857;28;20151;-67
2022/12/20 00:16:35;;;;;;;8.45;4.95;;;;;;;;;;5068992;28;20083;-67
2022/12/20 00:19:03;;;;;;;6.47;4.85;;;;;;;;;;5068326;28;20636;-67
2022/12/20 00:21:30;;;;;;;10.70;5.50;;;;;;;;;;5068663;28;20512;-67
2022/12/20 00:23:56;;;;;;;8.82;4.68;;;;;;;;;;5068911;28;20130;-67
2022/12/20 00:26:23;;;;;;;8.05;5.05;;;;;;;;;;5056085;28;20063;-67
2022/12/20 00:28:49;;;;;;;5.75;4.93;;;;;;;;;;5048575;28;20079;-67
2022/12/20 00:31:16;;;;;;;8.65;5.07;;;;;;;;;;5053076;28;20075;-67
2022/12/20 00:33:45;;;;;;;8.07;4.97;;;;;;;;;;5052064;28;20033;-67
2022/12/20 00:36:11;;;;;;;6.40;4.88;;;;;;;;;;5054039;28;20090;-67
2022/12/20 00:38:37;;;;;;;6.75;5.03;;;;;;;;;;5052649;28;20044;-67
2022/12/20 00:41:05;;;;;;;10.82;5.03;;;;;;;;;;5052026;28;20037;-67
2022/12/20 00:43:31;;;;;;;6.53;4.25;;;;;;;;;;5052087;28;20043;-67
2022/12/20 00:45:57;;;;;;;7.47;4.55;;;;;;;;;;5052446;28;20060;-67
2022/12/20 00:48:24;;;;;;;8.60;4.60;;;;;;;;;;5053376;28;20068;-67
2022/12/20 00:50:50;;;;;;;5.72;4.45;;;;;;;;;;5053488;28;20073;-67
2022/12/20 00:53:16;;;;;;;6.82;4.57;;;;;;;;;;5053313;28;20045;-67
2022/12/20 00:55:42;;;;;;;9.02;4.85;;;;;;;;;;5053311;28;20361;-67
2022/12/20 00:58:09;;;;;;;5.75;4.43;;;;;;;;;;5052119;28;20041;-67
2022/12/20 01:00:36;;;;;;;7.82;4.47;;;;;;;;;;5053511;28;20033;-67
2022/12/20 01:03:02;;;;;;;7.38;4.50;;;;;;;;;;5053247;28;20033;-67
2022/12/20 01:05:28;;;;;;;7.82;4.30;;;;;;;;;;5051927;28;20738;-67
2022/12/20 01:07:54;;;;;;;8.88;4.40;;;;;;;;;;5051631;28;20086;-67
2022/12/20 01:10:20;;;;;;;6.65;4.53;;;;;;;;;;5076182;28;20055;-67
2022/12/20 01:12:46;;;;;;;6.32;4.07;;;;;;;;;;5091648;28;20052;-67
2022/12/20 01:15:12;;;;;;;5.18;4.40;;;;;;;;;;5093159;28;20044;-67
2022/12/20 01:17:38;;;;;;;5.95;4.18;;;;;;;;;;5091864;28;20047;-67
2022/12/20 01:20:05;;;;;;;7.35;4.22;;;;;;;;;;5092384;28;20096;-67
2022/12/20 01:22:31;;;;;;;8.50;4.50;;;;;;;;;;5091740;28;20083;-67
2022/12/20 01:24:57;;;;;;;8.10;4.43;;;;;;;;;;5091431;28;20040;-67
2022/12/20 01:27:23;;;;;;;5.90;4.40;;;;;;;;;;5072614;28;20116;-67
2022/12/20 01:29:49;;;;;;;6.85;4.38;;;;;;;;;;5072725;28;20036;-67
2022/12/20 01:32:15;;;;;;;6.72;3.90;;;;;;;;;;5071544;28;20466;-67
2022/12/20 01:34:41;;;;;;;8.25;4.53;;;;;;;;;;5072496;28;20733;-67
2022/12/20 01:37:07;;;;;;;6.47;4.30;;;;;;;;;;5071584;28;20052;-67
2022/12/20 01:39:33;;;;;;;7.07;4.05;;;;;;;;;;5071440;28;20032;-67
2022/12/20 01:41:59;;;;;;;8.40;3.92;;;;;;;;;;5069810;28;20047;-67
2022/12/20 01:44:25;;;;;;;6.70;4.30;;;;;;;;;;5072315;28;20040;-67
2022/12/20 01:46:52;;;;;;;5.40;3.78;;;;;;;;;;5072510;28;20033;-67
2022/12/20 01:49:28;;;;;;;6.65;4.30;;;;;;;;;;5072252;28;20133;-67
2022/12/20 01:52:12;;;;;;;9.25;4.45;;;;;;;;;;5072295;28;20490;-67
2022/12/20 01:54:41;;;;;;;7.70;4.10;;;;;;;;;;5072061;28;20049;-67
2022/12/20 01:57:10;;;;;;;7.18;3.83;;;;;;;;;;5071759;28;20745;-67
2022/12/20 01:59:39;;;;;;;6.65;3.53;;;;;;;;;;5072360;28;20037;-67
2022/12/20 02:02:07;;;;;;;6.50;3.90;;;;;;;;;;5070518;28;20036;-67
2022/12/20 02:04:33;;;;;;;5.65;4.15;;;;;;;;;;5070267;28;20056;-67
2022/12/20 02:07:00;;;;;;;5.90;3.83;;;;;;;;;;5072104;28;20051;-67
2022/12/20 02:09:26;;;;;;;9.98;3.97;;;;;;;;;;5069124;28;20041;-67
2022/12/20 02:11:58;;;;;;;7.28;4.03;;;;;;;;;;5091935;28;20589;-67
2022/12/20 02:14:27;;;;;;;4.68;3.75;;;;;;;;;;5091005;28;20093;-67
2022/12/20 02:17:00;;;;;;;6.30;3.90;;;;;;;;;;5092209;28;20165;-67
2022/12/20 02:19:45;;;;;;;6.35;3.85;;;;;;;;;;5091451;28;20044;-67
2022/12/20 02:22:29;;;;;;;9.38;3.78;;;;;;;;;;5091762;28;20124;-67
2022/12/20 02:24:58;;;;;;;5.00;3.35;;;;;;;;;;5090178;28;20036;-67
2022/12/20 02:27:27;;;;;;;7.13;3.58;;;;;;;;;;5070398;28;20040;-67
2022/12/20 02:30:00;;;;;;;4.53;3.67;;;;;;;;;;5071577;28;20044;-67
2022/12/20 02:32:47;;;;;;;5.15;3.72;;;;;;;;;;5069606;28;20063;-67
2022/12/20 02:35:14;;;;;;;6.45;3.75;;;;;;;;;;5070254;28;20162;-67
2022/12/20 02:37:51;;;;;;;5.90;3.80;;;;;;;;;;5070123;28;20041;-67
2022/12/20 02:40:19;;;;;;;5.30;3.50;;;;;;;;;;5071044;28;20399;-67
2022/12/20 02:42:46;;;;;;;8.35;4.20;;;;;;;;;;5071640;28;20044;-67
2022/12/20 02:45:15;;;;;;;5.07;3.70;;;;;;;;;;5071414;28;20121;-67
2022/12/20 02:47:44;;;;;;;6.75;4.30;;;;;;;;;;5069710;28;20048;-67
2022/12/20 02:50:11;;;;;;;6.82;3.88;;;;;;;;;;5069805;28;20594;-67
2022/12/20 02:52:38;;;;;;;8.20;3.95;;;;;;;;;;5069608;28;20059;-67
2022/12/20 02:55:04;;;;;;;8.85;4.72;;;;;;;;;;5069601;28;20045;-67
2022/12/20 02:57:40;;;;;;;10.27;4.90;;;;;;;;;;5069866;28;20178;-67
2022/12/20 03:00:12;;;;;;;7.40;4.07;;;;;;;;;;5069875;28;20040;-67
2022/12/20 03:05:24;;;;;;;10.30;4.50;;;;;;;;;;5069569;28;20123;-67
2022/12/20 03:07:50;;;;;;;7.70;4.40;;;;;;;;;;5069404;28;20465;-68
2022/12/20 03:10:17;;;;;;;8.07;4.93;;;;;;;;;;5073436;28;20701;-67
2022/12/20 03:12:43;;;;;;;8.65;4.57;;;;;;;;;;5072913;28;20048;-67
2022/12/20 03:15:09;;;;;;;8.63;4.82;;;;;;;;;;5073009;28;20164;-68
2022/12/20 03:17:35;;;;;;;8.80;4.78;;;;;;;;;;5089010;28;20078;-67
2022/12/20 03:20:02;;;;;;;7.45;4.72;;;;;;;;;;5089339;28;20075;-68
2022/12/20 03:22:30;;;;;;;10.05;5.28;;;;;;;;;;5089768;28;20592;-67
2022/12/20 03:24:56;;;;;;;10.05;5.50;;;;;;;;;;5088952;28;20052;-67
2022/12/20 03:27:22;;;;;;;8.77;4.72;;;;;;;;;;5069379;28;20460;-67
2022/12/20 03:29:48;;;;;;;9.00;4.70;;;;;;;;;;5070542;28;20399;-67
2022/12/20 03:32:14;;;;;;;7.10;4.72;;;;;;;;;;5068908;28;20051;-67
2022/12/20 03:34:40;;;;;;;10.48;5.63;;;;;;;;;;5069219;28;20474;-67
2022/12/20 03:37:06;;;;;;;8.15;5.03;;;;;;;;;;5069367;28;20055;-67
2022/12/20 03:39:32;;;;;;;10.50;5.15;;;;;;;;;;5068732;28;20493;-67
2022/12/20 03:41:58;;;;;;;9.60;5.18;;;;;;;;;;5069115;28;20072;-67
2022/12/20 03:44:24;;;;;;;8.25;5.20;;;;;;;;;;5069334;28;20047;-67
2022/12/20 03:46:50;;;;;;;10.70;5.50;;;;;;;;;;5068822;28;20041;-67
2022/12/20 03:49:16;;;;;;;9.63;5.10;;;;;;;;;;5069286;28;20093;-67
2022/12/20 03:51:43;;;;;;;12.60;5.40;;;;;;;;;;5070254;28;20048;-67
2022/12/20 03:54:09;;;;;;;8.32;4.78;;;;;;;;;;5068729;28;20045;-67
2022/12/20 03:56:35;;;;;;;8.43;5.65;;;;;;;;;;5069292;28;20052;-67
2022/12/20 03:59:01;;;;;;;7.65;5.38;;;;;;;;;;5069204;28;20044;-67
2022/12/20 04:01:28;;;;;;;8.90;5.03;;;;;;;;;;5068356;28;20083;-67
2022/12/20 04:03:54;;;;;;;8.20;5.00;;;;;;;;;;5069227;28;20048;-67
2022/12/20 04:06:21;;;;;;;8.13;5.13;;;;;;;;;;5072397;28;20036;-67
2022/12/20 04:08:47;;;;;;;8.55;5.07;;;;;;;;;;5071675;28;20059;-67
2022/12/20 04:11:16;;;;;;;6.38;4.68;;;;;;;;;;5087686;28;20036;-67
2022/12/20 04:13:49;;;;;;;8.45;5.10;;;;;;;;;;5093124;28;20047;-67
2022/12/20 04:16:17;;;;;;;11.48;5.18;;;;;;;;;;5092896;28;20047;-67
2022/12/20 04:18:43;;;;;;;11.38;5.97;;;;;;;;;;5092995;28;20133;-68
2022/12/20 04:21:09;;;;;;;9.30;5.53;;;;;;;;;;5092728;28;20105;-68
2022/12/20 04:23:36;;;;;;;10.18;5.90;;;;;;;;;;5094189;28;20035;-67
2022/12/20 04:26:03;;;;;;;8.30;5.50;;;;;;;;;;5066446;28;20044;-67
2022/12/20 04:28:29;;;;;;;10.05;6.30;;;;;;;;;;5072488;28;20044;-67
2022/12/20 04:30:56;;;;;;;12.55;5.97;;;;;;;;;;5072126;28;20110;-67
2022/12/20 04:33:22;;;;;;;9.07;5.55;;;;;;;;;;5072395;28;20119;-67
2022/12/20 04:35:48;;;;;;;11.35;6.05;;;;;;;;;;5073915;28;20040;-67
2022/12/20 04:38:14;;;;;;;12.63;5.40;;;;;;;;;;5072290;28;20447;-67
2022/12/20 04:40:41;;;;;;;7.88;6.10;;;;;;;;;;5072170;28;20098;-67
2022/12/20 04:43:07;;;;;;;11.63;5.22;;;;;;;;;;5073749;28;20463;-67
2022/12/20 04:45:33;;;;;;;9.02;5.65;;;;;;;;;;5072155;28;20048;-67
2022/12/20 04:47:59;;;;;;;11.20;5.60;;;;;;;;;;5072233;28;20090;-67
2022/12/20 04:50:25;;;;;;;10.25;5.30;;;;;;;;;;5073778;28;20447;-67
2022/12/20 04:55:37;;;;;;;6.88;5.13;;;;;;;;;;5072247;28;20399;-67
2022/12/20 04:58:03;;;;;;;10.45;5.47;;;;;;;;;;5072097;28;20121;-67
2022/12/20 05:00:29;;;;;;;14.02;5.35;;;;;;;;;;5071526;28;20036;-67
2022/12/20 05:02:55;;;;;;;9.38;5.07;;;;;;;;;;5072136;28;20478;-67
2022/12/20 05:05:21;;;;;;;9.20;5.43;;;;;;;;;;5073144;28;20044;-67
2022/12/20 05:07:47;;;;;;;10.05;4.90;;;;;;;;;;5071648;28;20040;-67
2022/12/20 05:10:13;;;;;;;9.52;4.65;;;;;;;;;;5075445;28;20040;-67
2022/12/20 05:12:39;;;;;;;7.68;4.95;;;;;;;;;;5093353;28;20043;-68
2022/12/20 05:15:06;;;;;;;9.02;5.22;;;;;;;;;;5091679;28;20054;-68
2022/12/20 05:17:32;;;;;;;7.05;4.65;;;;;;;;;;5090680;28;20047;-68
2022/12/20 05:19:58;;;;;;;7.32;4.93;;;;;;;;;;5074958;28;20104;-68
2022/12/20 05:27:57;;;;;;;7.78;4.70;;;;;;;;;;5073056;28;20052;-67
2022/12/20 05:30:23;;;;;;;8.60;5.03;;;;;;;;;;5071510;28;20120;-67
2022/12/20 05:32:49;;;;;;;8.15;3.90;;;;;;;;;;5055128;28;20040;-67
2022/12/20 05:35:16;;;;;;;9.45;4.80;;;;;;;;;;5071957;28;20039;-67
2022/12/20 05:37:42;;;;;;;5.97;4.55;;;;;;;;;;5071282;28;20128;-67
2022/12/20 05:40:08;;;;;;;7.82;4.25;;;;;;;;;;5072088;28;20070;-67
2022/12/20 05:42:34;;;;;;;7.72;5.10;;;;;;;;;;5072978;28;20040;-67
2022/12/20 05:45:00;;;;;;;8.75;4.30;;;;;;;;;;5071371;28;20412;-67
2022/12/20 05:47:27;;;;;;;9.15;4.70;;;;;;;;;;5071517;28;20051;-67
2022/12/20 05:49:54;;;;;;;6.72;4.00;;;;;;;;;;5073152;28;20036;-67
2022/12/20 05:52:20;;;;;;;5.63;4.22;;;;;;;;;;5070775;28;20045;-67
2022/12/20 05:54:46;;;;;;;9.48;4.47;;;;;;;;;;5071677;28;20048;-67
2022/12/20 05:57:14;;;;;;;9.40;4.95;;;;;;;;;;5071190;28;20051;-67
2022/12/20 05:59:40;;;;;;;5.43;3.97;;;;;;;;;;5072408;28;20051;-67
2022/12/20 06:02:06;;;;;;;10.50;4.70;;;;;;;;;;5070915;28;20048;-67
2022/12/20 06:04:33;;;;;;;7.55;4.00;;;;;;;;;;5072618;28;20055;-67
2022/12/20 06:06:59;;;;;;;7.55;4.20;;;;;;;;;;5070789;28;20040;-67
2022/12/20 06:09:25;;;;;;;9.73;3.97;;;;;;;;;;5067942;28;20045;-67
2022/12/20 06:11:51;;;;;;;4.32;3.78;;;;;;;;;;5091406;28;20044;-67
2022/12/20 06:14:18;;;;;;;5.82;4.20;;;;;;;;;;5090812;28;20078;-67
2022/12/20 06:16:44;;;;;;;5.43;4.25;;;;;;;;;;5091146;28;20093;-67
2022/12/20 06:19:10;;;;;;;5.60;4.00;;;;;;;;;;5091134;28;20482;-67
2022/12/20 06:21:36;;;;;;;7.55;4.03;;;;;;;;;;5073788;28;20056;-67
2022/12/20 06:24:02;;;;;;;6.35;3.95;;;;;;;;;;5092488;28;20036;-67
2022/12/20 06:26:34;;;;;;;7.88;3.75;;;;;;;;;;5079325;28;20048;-67
2022/12/20 06:29:01;;;;;;;5.93;3.95;;;;;;;;;;5070193;28;20076;-67
2022/12/20 06:31:27;;;;;;;8.38;4.32;;;;;;;;;;5070466;28;20052;-67
2022/12/20 06:33:53;;;;;;;6.03;4.22;;;;;;;;;;5071206;28;20037;-63
2022/12/20 06:36:19;;;;;;;8.38;5.13;;;;;;;;;;5070213;28;20036;-64
2022/12/20 06:38:45;;;;;;;8.68;4.45;;;;;;;;;;5067694;28;20067;-64
2022/12/20 06:41:11;;;;;;;8.73;4.85;;;;;;;;;;5070956;28;20076;-63
2022/12/20 06:43:37;;;;;;;7.00;5.10;;;;;;;;;;5071049;28;20082;-63
2022/12/20 06:46:03;;;;;;;9.23;4.93;;;;;;;;;;5071555;28;20368;-63
2022/12/20 06:48:29;;;;;;;9.70;5.18;;;;;;;;;;5070440;28;20550;-63
2022/12/20 06:50:55;;;;;;;10.93;5.22;;;;;;;;;;5063133;28;20167;-64
2022/12/20 06:53:21;;;;;;;9.07;5.70;;;;;;;;;;5051282;28;20088;-64
2022/12/20 06:55:49;;;;;;;9.02;5.95;;;;;;;;;;5066167;28;20522;-65
2022/12/20 06:58:15;;;;;;;10.23;5.80;;;;;;;;;;5069459;28;20049;-65
2022/12/20 07:00:41;;;;;;;12.07;6.53;;;;;;;;;;5071130;28;20041;-65
2022/12/20 07:03:07;;;;;;;8.77;6.18;;;;;;;;;;5069630;28;20529;-65
2022/12/20 07:05:33;;;;;;;10.25;6.35;;;;;;;;;;5069887;28;20044;-65
2022/12/20 07:08:01;;;;;;;10.30;6.53;;;;;;;;;;5070256;28;20044;-67
2022/12/20 07:10:27;;;;;;;10.13;6.63;;;;;;;;;;5051063;28;20159;-67
2022/12/20 07:12:53;;;;;;;9.20;6.53;;;;;;;;;;5054204;28;21269;-67
2022/12/20 07:15:21;;;;;;;10.75;6.57;;;;;;;;;;5070500;28;20036;-65
2022/12/20 07:17:47;;;;;;;10.07;6.43;;;;;;;;;;5071232;28;20041;-65
2022/12/20 07:20:13;;;;;;;10.85;6.82;;;;;;;;;;5070364;28;20049;-65
2022/12/20 07:22:39;;;;;;;15.25;6.55;;;;;;;;;;5070334;28;20123;-65
2022/12/20 07:25:06;;;;;;;10.95;6.82;;;;;;;;;;5071045;28;20153;-65
2022/12/20 07:27:32;;;;;;;10.88;7.38;;;;;;;;;;5070707;28;20649;-65
2022/12/20 07:29:58;;;;;;;11.20;6.53;;;;;;;;;;5070766;28;20053;-66
2022/12/20 07:32:24;;;;;;;12.23;6.78;;;;;;;;;;5070742;28;20044;-66
2022/12/20 07:34:50;;;;;;;10.05;6.57;;;;;;;;;;5069438;28;20105;-65
2022/12/20 07:37:16;;;;;;;10.35;6.57;;;;;;;;;;5070429;28;20044;-66
2022/12/20 07:39:42;;;;;;;13.48;6.70;;;;;;;;;;5070187;28;20028;-66
2022/12/20 07:42:08;;;;;;;10.77;6.53;;;;;;;;;;5066100;28;20118;-66
2022/12/20 07:44:34;;;;;;;10.70;6.80;;;;;;;;;;5069809;28;20086;-65
2022/12/20 07:47:01;;;;;;;12.57;6.78;;;;;;;;;;5073265;28;20545;-64
2022/12/20 07:49:27;;;;;;;11.35;6.95;;;;;;;;;;5065405;28;20045;-63
2022/12/20 07:51:55;;;;;;;11.32;6.60;;;;;;;;;;5059716;28;20513;-64
2022/12/20 07:54:27;;;;;;;12.73;6.13;;;;;;;;;;5061397;28;20049;-64
2022/12/20 07:56:58;;;;;;;8.10;5.57;;;;;;;;;;5069546;28;20411;-64
2022/12/20 07:59:28;;;;;;;10.30;6.53;;;;;;;;;;5067976;28;20117;-64
2022/12/20 08:01:55;;;;;;;10.13;6.10;;;;;;;;;;5069923;28;20040;-64
2022/12/20 08:04:24;;;;;;;10.45;5.32;;;;;;;;;;5068779;28;20041;-64
2022/12/20 08:06:52;;;;;;;8.60;5.43;;;;;;;;;;5069181;28;20036;-64
2022/12/20 08:09:18;;;;;;;12.38;5.55;;;;;;;;;;5069757;28;20041;-64
2022/12/20 08:11:46;;;;;;;11.13;5.40;;;;;;;;;;5069928;28;20077;-64
2022/12/20 08:14:12;;;;;;;7.00;4.80;;;;;;;;;;5063423;28;20044;-64
2022/12/20 08:16:38;;;;;;;7.10;4.32;;;;;;;;;;5069135;28;20041;-64
2022/12/20 08:19:04;;;;;;;7.65;4.60;;;;;;;;;;5067654;28;20060;-64
2022/12/20 08:21:30;;;;;;;5.05;4.32;;;;;;;;;;5068027;28;20450;-64
2022/12/20 08:23:56;;;;;;;6.15;3.97;;;;;;;;;;5069255;28;20047;-64
2022/12/20 08:26:23;;;;;;;10.93;4.50;;;;;;;;;;5069618;28;20040;-64
2022/12/20 08:28:50;;;;;;;7.70;5.10;;;;;;;;;;5069100;28;20093;-64
2022/12/20 08:31:16;;;;;;;6.70;4.28;;;;;;;;;;5069394;28;20044;-64
2022/12/20 08:33:42;;;;;;;4.68;4.18;;;;;;;;;;5064651;28;20041;-64
2022/12/20 08:36:09;;;;;;;7.55;3.70;;;;;;;;;;5064093;28;20048;-64
2022/12/20 08:38:35;;;;;;;9.00;4.15;;;;;;;;;;5069911;28;20043;-64
2022/12/20 08:41:06;;;;;;;8.05;3.67;;;;;;;;;;5069798;28;20040;-64
2022/12/20 08:43:33;;;;;;;5.75;3.53;;;;;;;;;;5069547;28;20120;-64
2022/12/20 08:45:59;;;;;;;7.63;3.63;;;;;;;;;;5069471;28;20033;-64
2022/12/20 08:48:25;;;;;;;6.13;3.30;;;;;;;;;;5068047;28;20380;-64
2022/12/20 08:51:02;;;;;;;7.47;3.75;;;;;;;;;;5069851;28;20044;-64
2022/12/20 08:53:28;;;;;;;6.88;3.85;;;;;;;;;;5053610;28;20032;-64
2022/12/20 08:55:54;;;;;;;5.95;3.60;;;;;;;;;;5065535;28;20056;-64
2022/12/20 08:58:20;;;;;;;7.53;3.88;;;;;;;;;;5073109;28;20036;-64
2022/12/20 09:00:46;;;;;;;8.63;3.85;;;;;;;;;;5072003;28;20524;-64
2022/12/20 09:03:14;;;;;;;10.80;4.10;;;;;;;;;;5073158;28;20040;-64
2022/12/20 09:05:43;;;;;;;8.45;3.80;;;;;;;;;;5073312;28;20074;-64
2022/12/20 09:08:09;;;;;;;7.05;3.63;;;;;;;;;;5073014;28;20044;-64
2022/12/20 09:10:35;;;;;;;7.00;3.90;;;;;;;;;;5082754;28;20040;-64
2022/12/20 09:13:01;;;;;;;7.03;3.53;;;;;;;;;;5069644;28;20079;-64
2022/12/20 09:15:27;;;;;;;6.50;3.25;;;;;;;;;;5072916;28;20044;-64
2022/12/20 09:17:54;;;;;;;6.13;3.47;;;;;;;;;;5073017;28;20478;-64
2022/12/20 09:20:20;;;;;;;7.18;3.83;;;;;;;;;;5072486;28;20253;-64
2022/12/20 09:22:46;;;;;;;7.60;3.80;;;;;;;;;;5072945;28;20051;-64
2022/12/20 09:25:13;;;;;;;6.78;3.42;;;;;;;;;;5073038;28;20047;-64
2022/12/20 09:27:38;;;;;;;5.97;3.15;;;;;;;;;;5065130;28;20037;-64
2022/12/20 09:30:05;;;;;;;7.75;3.70;;;;;;;;;;5053088;28;20108;-64
2022/12/20 09:32:31;;;;;;;7.38;3.30;;;;;;;;;;5056973;28;20037;-64
2022/12/20 09:34:57;;;;;;;6.32;3.92;;;;;;;;;;5055050;28;20481;-64
2022/12/20 09:37:23;;;;;;;7.47;3.72;;;;;;;;;;5072774;28;20574;-64
2022/12/20 09:39:52;;;;;;;8.15;3.42;;;;;;;;;;5072429;28;20040;-64
2022/12/20 09:42:21;;;;;;;8.68;4.03;;;;;;;;;;5071085;28;20141;-64
2022/12/20 09:44:48;;;;;;;6.18;3.65;;;;;;;;;;5072307;28;20044;-64
2022/12/20 09:47:16;;;;;;;9.75;4.28;;;;;;;;;;5072327;28;20033;-64
2022/12/20 09:49:44;;;;;;;7.93;4.13;;;;;;;;;;5072234;28;20036;-64
2022/12/20 09:52:26;;;;;;;7.20;3.75;;;;;;;;;;5072193;28;20417;-64
2022/12/20 09:54:55;;;;;;;5.82;3.83;;;;;;;;;;5072291;28;20048;-64
2022/12/20 09:57:29;;;;;;;5.93;2.92;;;;;;;;;;5069591;28;20118;-64
2022/12/20 09:59:59;;;;;;;5.38;3.53;;;;;;;;;;5071906;28;20094;-64
2022/12/20 10:02:26;;;;;;;7.43;3.45;;;;;;;;;;5071617;28;20421;-64
2022/12/20 10:04:54;;;;;;;6.40;3.85;;;;;;;;;;5071493;28;20125;-64
2022/12/20 10:07:37;;;;;;;4.50;3.40;;;;;;;;;;5071969;28;20052;-64
2022/12/20 10:10:25;;;;;;;7.97;3.70;;;;;;;;;;5074867;28;20040;-64
2022/12/20 10:12:57;;;;;;;10.23;3.85;;;;;;;;;;5069578;28;20051;-64
2022/12/20 10:15:29;;;;;;;4.80;3.65;;;;;;;;;;5069246;28;20029;-64
2022/12/20 10:18:04;;;;;;;9.05;3.40;;;;;;;;;;5071774;28;20043;-64
2022/12/20 10:20:37;;;;;;;6.93;3.80;;;;;;;;;;5068424;28;20063;-64
2022/12/20 10:23:08;;;;;;;7.70;4.28;;;;;;;;;;5066757;28;20071;-64
2022/12/20 10:25:34;;;;;;;8.00;4.03;;;;;;;;;;5055305;28;20123;-64
2022/12/20 10:28:02;;;;;;;7.97;3.90;;;;;;;;;;5062605;28;20033;-65
2022/12/20 10:30:28;;;;;;;7.20;4.38;;;;;;;;;;5064094;28;20036;-65
2022/12/20 10:32:57;;;;;;;8.43;4.07;;;;;;;;;;5066453;28;20054;-65
2022/12/20 10:35:30;;;;;;;7.60;3.85;;;;;;;;;;5070085;28;20040;-64
2022/12/20 10:38:04;;;;;;;10.05;4.00;;;;;;;;;;5063251;28;20059;-62
2022/12/20 10:40:30;;;;;;;8.57;4.68;;;;;;;;;;5069191;28;20075;-64
2022/12/20 10:42:56;;;;;;;12.50;4.60;;;;;;;;;;5066135;28;20098;-65
2022/12/20 10:45:22;;;;;;;8.40;4.50;;;;;;;;;;5056546;28;20071;-64
2022/12/20 10:47:50;;;;;;;7.63;4.13;;;;;;;;;;5064661;28;20082;-64
2022/12/20 10:50:16;;;;;;;7.60;4.20;;;;;;;;;;5061077;28;20414;-66
2022/12/20 10:52:43;;;;;;;8.65;4.35;;;;;;;;;;5067857;28;20079;-67
2022/12/20 10:55:28;;;;;;;10.07;4.50;;;;;;;;;;5078176;28;20470;-69
2022/12/20 10:57:54;;;;;;;8.95;4.50;;;;;;;;;;5054266;28;20044;-68
2022/12/20 11:00:30;;;;;;;5.95;4.00;;;;;;;;;;5063562;28;20036;-67
2022/12/20 11:03:07;;;;;;;9.05;4.65;;;;;;;;;;5063389;28;20100;-67
2022/12/20 11:05:33;;;;;;;11.10;4.57;;;;;;;;;;5063070;28;20109;-67
2022/12/20 11:08:06;;;;;;;8.05;4.80;;;;;;;;;;5066806;28;20037;-68
2022/12/20 11:10:32;;;;;;;11.70;5.50;;;;;;;;;;5058242;28;20620;-68
2022/12/20 11:13:00;;;;;;;9.60;4.70;;;;;;;;;;5063428;28;20490;-67
2022/12/20 11:15:32;;;;;;;8.95;5.55;;;;;;;;;;5064243;28;20037;-67
2022/12/20 11:18:06;;;;;;;8.70;4.85;;;;;;;;;;5066643;28;20049;-67
2022/12/20 11:20:40;;;;;;;9.30;5.25;;;;;;;;;;5062862;28;20516;-67
2022/12/20 11:23:18;;;;;;;11.07;4.28;;;;;;;;;;5064339;28;20039;-67
2022/12/20 11:25:44;;;;;;;7.05;4.75;;;;;;;;;;5061960;28;20040;-66
2022/12/20 11:28:32;;;;;;;7.97;4.57;;;;;;;;;;5066309;28;20127;-68
2022/12/20 11:31:01;;;;;;;11.25;4.93;;;;;;;;;;5058076;28;20044;-68
2022/12/20 11:33:46;;;;;;;9.55;4.78;;;;;;;;;;5059454;28;20037;-69
2022/12/20 11:36:33;;;;;;;6.95;4.63;;;;;;;;;;5054540;28;20083;-66
2022/12/20 11:39:19;;;;;;;7.60;4.53;;;;;;;;;;5067537;28;20125;-67
2022/12/20 11:41:46;;;;;;;7.85;4.53;;;;;;;;;;5028963;28;20044;-66
2022/12/20 11:44:12;;;;;;;9.50;5.03;;;;;;;;;;5065113;28;20049;-67
2022/12/20 11:46:57;;;;;;;7.50;4.28;;;;;;;;;;5072992;28;20128;-66
2022/12/20 11:49:36;;;;;;;8.02;4.10;;;;;;;;;;5062616;28;20378;-63
2022/12/20 11:52:02;;;;;;;7.47;4.68;;;;;;;;;;5061100;28;20044;-63
2022/12/20 11:54:30;;;;;;;9.02;4.57;;;;;;;;;;5061086;28;20032;-64
2022/12/20 11:56:59;;;;;;;6.95;4.30;;;;;;;;;;5064149;28;20090;-63
2022/12/20 11:59:28;;;;;;;8.65;4.88;;;;;;;;;;5060957;28;20535;-64
2022/12/20 12:02:04;;;;;;;8.63;5.50;;;;;;;;;;5065028;28;20075;-63
2022/12/20 12:04:32;;;;;;;7.60;4.32;;;;;;;;;;5068461;28;20175;-63
2022/12/20 12:07:02;;;;;;;7.80;4.07;;;;;;;;;;5068834;28;21806;-64
2022/12/20 12:09:46;;;;;;;8.32;5.05;;;;;;;;;;5064051;28;20065;-64
2022/12/20 12:12:23;;;;;;;6.35;4.40;;;;;;;;;;5059522;28;20043;-64
2022/12/20 12:15:02;;;;;;;8.35;4.50;;;;;;;;;;5069743;28;20039;-64
2022/12/20 12:17:34;;;;;;;10.02;7.45;;;;;;;;;;5062637;28;20126;-64
2022/12/20 12:20:09;;;;;;;6.85;5.00;;;;;;;;;;5068482;28;20044;-62
2022/12/20 12:22:35;;;;;;;8.82;5.20;;;;;;;;;;5069500;28;20479;-64
2022/12/20 12:25:04;;;;;;;8.23;5.38;;;;;;;;;;5067996;28;20040;-63
2022/12/20 12:27:30;;;;;;;8.75;5.13;;;;;;;;;;5070485;28;20036;-62
2022/12/20 12:29:57;;;;;;;8.75;5.20;;;;;;;;;;5071548;28;20037;-62
2022/12/20 12:32:26;;;;;;;7.63;5.03;;;;;;;;;;5072911;28;20048;-63
2022/12/20 12:35:13;;;;;;;8.32;5.28;;;;;;;;;;5070317;28;20482;-63
2022/12/20 12:37:48;;;;;;;9.00;5.30;;;;;;;;;;5067104;28;20040;-63
2022/12/20 12:40:23;;;;;;;8.90;5.50;;;;;;;;;;5060278;28;20029;-62
2022/12/20 12:43:05;;;;;;;6.85;5.20;;;;;;;;;;5068833;28;20376;-62
2022/12/20 12:45:34;;;;;;;10.65;6.15;;;;;;;;;;5064665;28;20044;-63
2022/12/20 12:48:12;;;;;;;7.55;6.07;;;;;;;;;;5070556;28;20075;-63
2022/12/20 12:50:49;;;;;;;7.03;5.63;;;;;;;;;;5065294;28;20601;-63
2022/12/20 12:53:21;;;;;;;8.65;5.70;;;;;;;;;;5065537;28;20044;-63
2022/12/20 12:55:49;;;;;;;8.25;6.13;;;;;;;;;;5065423;28;20090;-62
2022/12/20 12:58:15;;;;;;;10.60;6.20;;;;;;;;;;5063664;28;20681;-63
2022/12/20 13:00:54;;;;;;;8.77;6.05;;;;;;;;;;5071454;28;20112;-63
2022/12/20 13:03:39;;;;;;;10.30;5.88;;;;;;;;;;5064808;28;20040;-63
2022/12/20 13:06:43;;;;;;;9.20;6.13;;;;;;;;;;5068016;28;20067;-62
2022/12/20 13:09:09;;;;;;;8.05;6.15;;;;;;;;;;5062661;28;20060;-62
2022/12/20 13:11:36;;;;;;;10.15;6.30;;;;;;;;;;5076132;28;20486;-62
2022/12/20 13:14:28;;;;;;;11.68;6.72;;;;;;;;;;5071243;28;20040;-62
2022/12/20 13:17:14;;;;;;;10.30;6.95;;;;;;;;;;5031067;28;20090;-62
2022/12/20 13:19:50;;;;;;;12.85;7.22;;;;;;;;;;5066207;28;20086;-63
2022/12/20 13:22:16;;;;;;;10.15;6.90;;;;;;;;;;5056663;28;20408;-63
2022/12/20 13:25:02;;;;;;;16.10;7.57;;;;;;;;;;5071067;28;20036;-62
2022/12/20 13:27:30;;;;;;;10.77;6.90;;;;;;;;;;5061255;28;20051;-62
2022/12/20 13:30:21;;;;;;;10.77;7.22;;;;;;;;;;5071487;28;20127;-62
2022/12/20 13:32:47;;;;;;;12.70;7.35;;;;;;;;;;5067326;28;20079;-62
2022/12/20 13:35:25;;;;;;;14.60;8.70;;;;;;;;;;5068591;28;20041;-63
2022/12/20 13:38:04;;;;;;;9.48;7.10;;;;;;;;;;5057937;28;20418;-62
2022/12/20 13:40:50;;;;;;;11.98;7.13;;;;;;;;;;5063035;28;20494;-62
2022/12/20 13:43:19;;;;;;;12.00;7.80;;;;;;;;;;5067643;28;20041;-62
2022/12/20 13:45:56;;;;;;;9.15;7.70;;;;;;;;;;5063522;28;20406;-62
2022/12/20 13:48:27;;;;;;;15.90;9.98;;;;;;;;;;5064155;28;20036;-63
2022/12/20 13:50:54;;;;;;;13.02;9.23;;;;;;;;;;5063770;28;20032;-62
2022/12/20 13:53:22;;;;;;;20.65;11.68;;;;;;;;;;5064782;28;20040;-63
2022/12/20 13:55:49;;;;;;;10.80;7.95;;;;;;;;;;5065986;28;20068;-61
2022/12/20 13:58:30;;;;;;;15.70;10.30;;;;;;;;;;5070751;28;20040;-62
2022/12/20 14:01:06;;;;;;;17.00;12.93;;;;;;;;;;5070187;28;20142;-61
2022/12/20 14:03:35;;;;;;;11.95;8.35;;;;;;;;;;5063009;28;20041;-61
2022/12/20 14:06:02;;;;;;;9.20;7.57;;;;;;;;;;5080827;28;20165;-61
2022/12/20 14:08:33;;;;;;;13.70;10.07;;;;;;;;;;5072988;28;20277;-62
2022/12/20 14:11:12;;;;;;;10.68;8.73;;;;;;;;;;5067417;28;20040;-63
2022/12/20 14:13:39;;;;;;;14.00;8.63;;;;;;;;;;5058531;28;20093;-63
2022/12/20 14:16:15;;;;;;;11.68;8.13;;;;;;;;;;5071359;28;20033;-62
2022/12/20 14:18:43;;;;;;;12.25;8.27;;;;;;;;;;5075226;28;20207;-62
2022/12/20 14:21:09;;;;;;;10.40;8.30;;;;;;;;;;5067110;28;20052;-62
2022/12/20 14:23:37;;;;;;;11.32;8.10;;;;;;;;;;5068065;28;20490;-64
2022/12/20 14:26:04;;;;;;;11.63;8.93;;;;;;;;;;5067009;28;20739;-62
2022/12/20 14:28:34;;;;;;;10.40;8.02;;;;;;;;;;5069943;28;20609;-63
2022/12/20 14:31:02;;;;;;;12.40;8.43;;;;;;;;;;5063765;28;20044;-65
2022/12/20 14:33:34;;;;;;;14.15;8.70;;;;;;;;;;5060019;28;20044;-66
2022/12/20 14:36:09;;;;;;;12.18;8.90;;;;;;;;;;5062354;28;20111;-66
2022/12/20 14:38:35;;;;;;;12.45;9.68;;;;;;;;;;5066796;28;20037;-66
2022/12/20 14:41:01;;;;;;;10.30;8.80;;;;;;;;;;5066775;28;20150;-67
2022/12/20 14:43:28;;;;;;;11.52;9.13;;;;;;;;;;5071145;28;20119;-67
2022/12/20 14:46:27;;;;;;;13.02;9.23;;;;;;;;;;5070533;28;20555;-67
2022/12/20 14:49:12;;;;;;;12.80;10.18;;;;;;;;;;5021925;28;20051;-67
2022/12/20 14:51:39;;;;;;;12.98;9.98;;;;;;;;;;5065180;28;20125;-66
2022/12/20 14:54:05;;;;;;;14.75;10.48;;;;;;;;;;5061961;28;20132;-66
2022/12/20 14:56:32;;;;;;;12.45;10.38;;;;;;;;;;5062104;28;20036;-66
2022/12/20 14:59:04;;;;;;;13.07;10.55;;;;;;;;;;5070468;28;20040;-66
2022/12/20 15:01:31;;;;;;;15.90;11.35;;;;;;;;;;5047298;28;20075;-67